Estación Meteorológica Peña el Pijo (Robertgarden) [ 09/24/17 17:52:22 CEST ]

Fecha Hora Presion(HPa) Temp (°C) Humedad % Rocio (°C) Viento ( m/s) Direccion Lluvia 1Hora(mm) Lluvia 24H(mm) LLuvia Total(mm)
2017-Sep-19 01:02:01 1014.200 10.6 61 3.4         1457.65
2017-Sep-19 02:01:48 1014.300 10.1 65 3.8         1457.65
2017-Sep-19 03:01:39 1014.200 9.5 67 3.6         1457.65
2017-Sep-19 04:01:33 1013.900 8.9 68 3.3         1457.65
2017-Sep-19 05:01:39 1014.000 8.3 71 3.4         1457.65
2017-Sep-19 06:01:35 1013.900 8.1 73 3.6         1457.65
2017-Sep-19 07:01:52 1014.000 8.3 74 3.9         1457.65
2017-Sep-19 08:01:45 1014.200 7.2 75 3.0         1457.65
2017-Sep-19 09:01:45 1014.800 8.8 78 5.1         1457.65
2017-Sep-19 10:01:47 1014.900 16.9 59 8.8         1457.65
2017-Sep-19 11:01:51 1015.100 21.9 41 8.0         1457.65
2017-Sep-19 12:01:50 1014.900 24.4 33 7.0         1457.65
2017-Sep-19 13:01:46 1014.600 26.2 30 7.3         1457.65
2017-Sep-19 14:01:46 1014.100 27.0 28 6.8         1457.65
2017-Sep-19 15:01:58 1013.500 27.9 24 5.2         1457.65
2017-Sep-19 16:01:41 1012.900 28.6 23 5.2 0.5 NW     1457.65
2017-Sep-19 17:01:51 1012.600 28.9 21 4.3         1457.65
2017-Sep-19 18:02:05 1012.800 27.6 22 3.8         1457.65
2017-Sep-19 19:01:51 1012.800 24.9 24 2.7 0.6 SSE     1457.65
2017-Sep-19 20:01:55 1013.200 21.5 29 2.7         1457.65
2017-Sep-19 21:01:49 1013.600 17.4 38 2.9         1457.65
2017-Sep-19 22:01:35 1014.300 13.8 45 2.0         1457.65
2017-Sep-19 23:01:48 1014.500 12.7 49 2.2         1457.65

Temperatura Máxima:28°    Temperatura Mínima:
Presión Máxima:1015.100 Hpa    Presión Mínima:1012.600 Hpa


Volver